createdAt,value
2023-04-28T00:01:42.014Z,5.60
2023-04-28T00:04:09.097Z,5.00
2023-04-28T00:06:37.234Z,4.80
2023-04-28T00:09:04.215Z,5.30
2023-04-28T00:11:31.017Z,5.10
2023-04-28T00:13:58.085Z,5.50
2023-04-28T00:16:24.931Z,5.40
2023-04-28T00:18:52.087Z,6.00
2023-04-28T00:21:19.115Z,5.70
2023-04-28T00:23:46.038Z,5.60
2023-04-28T00:26:12.776Z,6.40
2023-04-28T00:28:40.555Z,5.50
2023-04-28T00:31:12.591Z,5.60
2023-04-28T00:33:43.606Z,6.00
2023-04-28T00:36:11.191Z,5.80
2023-04-28T00:38:37.993Z,6.20
2023-04-28T00:41:04.849Z,5.80
2023-04-28T00:43:31.625Z,6.30
2023-04-28T00:45:58.496Z,5.80
2023-04-28T00:48:25.475Z,6.30
2023-04-28T00:50:52.339Z,6.50
2023-04-28T00:53:19.086Z,6.60
2023-04-28T00:55:45.896Z,6.30
2023-04-28T00:58:12.631Z,6.10
2023-04-28T01:00:39.491Z,6.20
2023-04-28T01:03:06.618Z,5.90
2023-04-28T01:05:34.025Z,5.80
2023-04-28T01:08:00.853Z,6.20
2023-04-28T01:10:27.588Z,5.80
2023-04-28T01:12:55.039Z,6.50
2023-04-28T01:15:21.982Z,5.90
2023-04-28T01:17:51.272Z,7.20
2023-04-28T01:20:18.264Z,6.60
2023-04-28T01:22:45.110Z,7.10
2023-04-28T01:25:11.925Z,7.10
2023-04-28T01:27:38.685Z,6.60
2023-04-28T01:30:06.909Z,6.10
2023-04-28T01:32:34.049Z,7.20
2023-04-28T01:35:03.544Z,6.30
2023-04-28T01:37:30.689Z,6.80
2023-04-28T01:39:57.526Z,6.70
2023-04-28T01:42:25.388Z,6.70
2023-04-28T01:44:53.163Z,8.00
2023-04-28T01:47:20.617Z,6.90
2023-04-28T01:49:48.391Z,6.40
2023-04-28T01:52:15.332Z,7.20
2023-04-28T01:54:42.304Z,6.90
2023-04-28T01:57:09.689Z,7.00
2023-04-28T01:59:36.904Z,6.40
2023-04-28T02:02:05.659Z,6.70
2023-04-28T02:04:33.084Z,7.50
2023-04-28T02:06:59.930Z,7.00
2023-04-28T02:09:27.273Z,7.60
2023-04-28T02:11:53.990Z,6.70
2023-04-28T02:14:21.382Z,6.90
2023-04-28T02:16:48.153Z,6.70
2023-04-28T02:19:15.679Z,7.20
2023-04-28T02:21:43.204Z,7.90
2023-04-28T02:24:10.067Z,8.00
2023-04-28T02:26:36.820Z,7.50
2023-04-28T02:29:06.625Z,7.90
2023-04-28T02:31:33.438Z,8.20
2023-04-28T02:34:00.406Z,7.60
2023-04-28T02:36:27.910Z,7.80
2023-04-28T02:38:54.743Z,6.90
2023-04-28T02:41:21.568Z,7.20
2023-04-28T02:43:48.423Z,7.30
2023-04-28T02:46:15.284Z,7.40
2023-04-28T02:48:42.497Z,7.60
2023-04-28T02:51:10.777Z,7.60
2023-04-28T02:53:38.063Z,8.20
2023-04-28T02:56:05.285Z,8.00
2023-04-28T02:58:32.986Z,8.30
2023-04-28T03:00:59.924Z,7.60
2023-04-28T03:03:26.895Z,8.00
2023-04-28T03:05:53.803Z,6.90
2023-04-28T03:08:21.154Z,7.50
2023-04-28T03:10:48.012Z,7.30
2023-04-28T03:13:15.076Z,7.40
2023-04-28T03:15:42.431Z,8.00
2023-04-28T03:18:09.438Z,7.50
2023-04-28T03:20:36.614Z,7.20
2023-04-28T03:23:03.720Z,7.30
2023-04-28T03:25:30.651Z,7.40
2023-04-28T03:27:57.600Z,8.10
2023-04-28T03:30:24.356Z,7.10
2023-04-28T03:32:51.261Z,7.10
2023-04-28T03:35:18.244Z,7.90
2023-04-28T03:37:44.999Z,7.50
2023-04-28T03:40:12.713Z,7.70
2023-04-28T03:42:55.001Z,7.50
2023-04-28T03:45:31.986Z,7.10
2023-04-28T03:47:59.125Z,7.20
2023-04-28T03:50:26.802Z,7.30
2023-04-28T03:52:54.296Z,7.30
2023-04-28T03:55:21.158Z,7.60
2023-04-28T03:57:47.989Z,7.50
2023-04-28T04:00:14.930Z,7.60
2023-04-28T04:02:46.035Z,7.50
2023-04-28T04:05:13.079Z,8.40
2023-04-28T04:07:41.030Z,7.90
2023-04-28T04:10:08.511Z,7.60
2023-04-28T04:12:36.283Z,7.80
2023-04-28T04:15:04.196Z,6.90
2023-04-28T04:17:31.744Z,7.80
2023-04-28T04:19:58.594Z,7.60
2023-04-28T04:22:27.178Z,7.30
2023-04-28T04:24:53.923Z,7.80
2023-04-28T04:27:20.884Z,7.70
2023-04-28T04:29:47.735Z,7.60
2023-04-28T04:32:15.022Z,8.70
2023-04-28T04:34:42.378Z,7.60
2023-04-28T04:37:09.658Z,8.20
2023-04-28T04:42:23.168Z,8.30
2023-04-28T04:45:12.461Z,7.30
2023-04-28T04:47:39.683Z,7.50
2023-04-28T04:50:07.621Z,7.20
2023-04-28T04:52:34.366Z,7.20
2023-04-28T05:00:29.475Z,6.90
2023-04-28T05:02:57.150Z,6.90
2023-04-28T05:05:24.208Z,6.60
2023-04-28T05:08:12.854Z,7.00
2023-04-28T05:10:40.478Z,7.50
2023-04-28T05:13:07.615Z,8.30
2023-04-28T05:15:34.825Z,7.50
2023-04-28T05:25:29.046Z,7.30
2023-04-28T05:27:56.564Z,7.00
2023-04-28T05:30:23.580Z,6.60
2023-04-28T05:32:51.334Z,6.70
2023-04-28T05:35:18.375Z,7.10
2023-04-28T05:37:45.432Z,6.30
2023-04-28T05:40:12.757Z,7.00
2023-04-28T05:42:40.037Z,6.40
2023-04-28T05:45:07.603Z,6.10
2023-04-28T05:47:34.522Z,6.70
2023-04-28T05:50:01.377Z,5.90
2023-04-28T05:52:28.319Z,6.10
2023-04-28T05:54:55.075Z,6.70
2023-04-28T05:57:22.223Z,6.50
2023-04-28T05:59:49.089Z,6.20
2023-04-28T06:02:17.141Z,5.70
2023-04-28T06:04:44.760Z,5.80
2023-04-28T06:07:11.835Z,5.10
2023-04-28T06:09:38.806Z,5.00
2023-04-28T06:12:06.314Z,5.40
2023-04-28T06:14:33.293Z,5.70
2023-04-28T06:17:00.590Z,5.40
2023-04-28T06:19:27.471Z,5.60
2023-04-28T06:21:54.301Z,5.50
2023-04-28T06:24:21.096Z,6.10
2023-04-28T06:26:48.259Z,6.20
2023-04-28T06:29:15.072Z,6.00
2023-04-28T06:31:41.882Z,5.20
2023-04-28T06:34:08.862Z,5.70
2023-04-28T06:36:36.266Z,4.90
2023-04-28T06:39:04.418Z,6.10
2023-04-28T06:41:33.228Z,7.10
2023-04-28T06:44:01.196Z,5.80
2023-04-28T06:46:30.196Z,6.20
2023-04-28T06:48:57.503Z,6.50
2023-04-28T06:51:24.582Z,5.80
2023-04-28T06:53:53.271Z,6.30
2023-04-28T06:59:20.050Z,5.90
2023-04-28T07:01:48.058Z,5.30
2023-04-28T07:04:15.418Z,5.70
2023-04-28T07:06:42.666Z,5.50
2023-04-28T07:09:09.621Z,4.30
2023-04-28T07:11:37.167Z,4.70
2023-04-28T07:14:03.967Z,4.50
2023-04-28T07:16:30.843Z,4.10
2023-04-28T07:18:57.571Z,4.90
2023-04-28T07:21:24.332Z,4.30
2023-04-28T07:23:51.249Z,4.70
2023-04-28T07:26:18.013Z,4.10
2023-04-28T07:28:45.033Z,3.50
2023-04-28T07:31:11.852Z,4.70
2023-04-28T07:33:38.639Z,5.20
2023-04-28T07:36:06.148Z,5.30
2023-04-28T07:38:36.025Z,4.10
2023-04-28T07:41:03.734Z,4.30
2023-04-28T07:43:30.991Z,4.30
2023-04-28T07:45:58.000Z,3.90
2023-04-28T07:48:24.935Z,4.60
2023-04-28T07:50:51.716Z,3.50
2023-04-28T07:53:18.530Z,3.30
2023-04-28T07:59:01.869Z,3.50
2023-04-28T08:01:28.747Z,3.60
2023-04-28T08:03:55.833Z,3.30
2023-04-28T08:06:22.855Z,3.70
2023-04-28T08:08:49.983Z,4.50
2023-04-28T08:11:16.794Z,4.00
2023-04-28T08:13:43.537Z,4.00
2023-04-28T08:16:10.319Z,3.80
2023-04-28T08:18:37.291Z,3.50
2023-04-28T08:21:04.620Z,3.80
2023-04-28T08:23:32.195Z,3.00
2023-04-28T08:25:58.939Z,3.30
2023-04-28T08:28:26.273Z,3.80
2023-04-28T08:30:54.473Z,3.60
2023-04-28T08:33:21.502Z,4.00
2023-04-28T08:35:48.250Z,3.70
2023-04-28T08:38:17.661Z,3.80
2023-04-28T08:40:44.519Z,3.80
2023-04-28T08:43:11.700Z,4.30
2023-04-28T08:45:41.915Z,4.70
2023-04-28T08:48:20.350Z,4.50
2023-04-28T08:50:52.852Z,3.80
2023-04-28T08:53:26.072Z,4.00
2023-04-28T08:55:59.325Z,4.50
2023-04-28T08:58:27.021Z,4.60
2023-04-28T09:00:54.622Z,4.10
2023-04-28T09:03:22.157Z,4.40
2023-04-28T09:05:49.269Z,3.70
2023-04-28T09:08:16.514Z,4.00
2023-04-28T09:10:43.366Z,4.40
2023-04-28T09:13:10.720Z,3.90
2023-04-28T09:15:41.382Z,4.00
2023-04-28T09:18:08.409Z,4.40
2023-04-28T09:20:35.918Z,4.10
2023-04-28T09:23:19.078Z,4.00
2023-04-28T09:26:04.029Z,4.00
2023-04-28T09:28:32.261Z,4.40
2023-04-28T09:30:59.320Z,4.10
2023-04-28T09:33:26.439Z,4.30
2023-04-28T09:35:53.652Z,4.00
2023-04-28T09:38:21.997Z,3.80
2023-04-28T09:41:00.137Z,4.30
2023-04-28T09:43:32.302Z,3.80
2023-04-28T09:46:05.316Z,3.90
2023-04-28T09:48:39.214Z,4.10
2023-04-28T09:51:10.986Z,3.80
2023-04-28T09:53:39.724Z,4.60
2023-04-28T09:56:08.210Z,3.80
2023-04-28T09:58:35.913Z,3.60
2023-04-28T10:01:03.215Z,4.00
2023-04-28T10:03:30.895Z,3.90
2023-04-28T10:05:58.580Z,4.60
2023-04-28T10:08:27.249Z,4.10
2023-04-28T10:10:54.798Z,4.30
2023-04-28T10:13:22.203Z,3.80
2023-04-28T10:15:50.209Z,3.60
2023-04-28T10:18:17.056Z,3.30
2023-04-28T10:20:46.069Z,5.10
2023-04-28T10:23:38.360Z,3.80
2023-04-28T10:26:05.537Z,3.50
2023-04-28T10:28:32.269Z,4.10
2023-04-28T10:31:21.536Z,3.50
2023-04-28T10:33:49.650Z,3.60
2023-04-28T10:36:54.790Z,3.50
2023-04-28T10:39:21.592Z,3.20
2023-04-28T10:41:49.284Z,3.10
2023-04-28T10:44:28.796Z,3.90
2023-04-28T10:47:13.976Z,3.60
2023-04-28T10:49:57.685Z,3.70
2023-04-28T10:52:37.843Z,3.40
2023-04-28T10:55:40.378Z,3.60
2023-04-28T10:58:16.860Z,3.30
2023-04-28T11:00:45.496Z,3.60
2023-04-28T11:03:44.515Z,2.60
2023-04-28T11:06:28.777Z,3.00
2023-04-28T11:08:57.528Z,2.70
2023-04-28T11:11:28.026Z,2.70
2023-04-28T11:14:21.101Z,2.70
2023-04-28T11:16:49.509Z,2.80
2023-04-28T11:19:18.860Z,3.00
2023-04-28T11:21:45.632Z,2.80
2023-04-28T11:24:12.736Z,2.60
2023-04-28T11:26:39.534Z,2.80
2023-04-28T11:29:06.314Z,2.90
2023-04-28T11:31:33.148Z,2.80
2023-04-28T11:34:14.503Z,3.20
2023-04-28T11:36:41.624Z,3.20
2023-04-28T11:39:09.802Z,3.40
2023-04-28T11:41:37.983Z,2.90
2023-04-28T11:45:37.859Z,2.90
2023-04-28T11:48:22.174Z,3.40
2023-04-28T11:50:48.981Z,3.40
2023-04-28T11:53:16.790Z,2.80
2023-04-28T11:55:44.035Z,2.90
2023-04-28T11:58:24.090Z,3.00
2023-04-28T12:01:13.849Z,2.80
2023-04-28T12:03:47.625Z,3.30
2023-04-28T12:06:21.100Z,2.80
2023-04-28T12:08:49.004Z,3.50
2023-04-28T12:11:20.136Z,3.50
2023-04-28T12:14:03.586Z,3.30
2023-04-28T12:16:39.278Z,3.20
2023-04-28T12:19:10.061Z,3.30
2023-04-28T12:21:40.555Z,3.00
2023-04-28T12:24:20.914Z,2.80
2023-04-28T12:26:48.786Z,3.00
2023-04-28T12:29:38.317Z,3.00
2023-04-28T12:32:09.558Z,3.30
2023-04-28T12:34:36.865Z,2.70
2023-04-28T12:37:05.979Z,2.60
2023-04-28T12:39:34.898Z,2.80
2023-04-28T12:42:02.941Z,3.50
2023-04-28T12:44:36.842Z,2.80
2023-04-28T12:47:05.038Z,3.40
2023-04-28T12:49:32.171Z,3.80
2023-04-28T12:51:59.040Z,2.90
2023-04-28T12:54:25.817Z,3.50
2023-04-28T12:56:54.535Z,2.80
2023-04-28T12:59:23.344Z,3.40
2023-04-28T13:01:50.688Z,3.30
2023-04-28T13:04:18.919Z,3.30
2023-04-28T13:06:46.712Z,3.00
2023-04-28T13:09:15.278Z,3.60
2023-04-28T13:11:42.398Z,3.10
2023-04-28T13:14:09.182Z,2.80
2023-04-28T13:16:36.048Z,2.80
2023-04-28T13:19:03.887Z,3.00
2023-04-28T13:21:31.970Z,2.90
2023-04-28T13:23:58.830Z,2.80
2023-04-28T13:26:26.894Z,2.80
2023-04-28T13:28:53.706Z,3.50
2023-04-28T13:31:21.107Z,2.40
2023-04-28T13:33:47.908Z,2.60
2023-04-28T13:36:14.746Z,2.60
2023-04-28T13:38:41.586Z,2.50
2023-04-28T13:41:08.345Z,2.60
2023-04-28T13:43:35.222Z,2.70
2023-04-28T13:46:02.148Z,2.50
2023-04-28T13:48:29.330Z,2.90
2023-04-28T13:50:56.416Z,2.90
2023-04-28T13:53:23.255Z,2.90
2023-04-28T13:55:51.435Z,2.70
2023-04-28T13:58:18.197Z,2.70
2023-04-28T14:00:45.280Z,2.80
2023-04-28T14:03:12.145Z,2.40
2023-04-28T14:05:48.912Z,2.50
2023-04-28T14:08:18.823Z,2.90
2023-04-28T14:10:48.127Z,2.50
2023-04-28T14:13:15.064Z,2.80
2023-04-28T14:15:51.327Z,2.70
2023-04-28T14:18:25.169Z,2.80
2023-04-28T14:20:52.042Z,2.30
2023-04-28T14:23:18.792Z,2.20
2023-04-28T14:25:45.536Z,2.50
2023-04-28T14:28:12.391Z,3.70
2023-04-28T14:30:39.144Z,2.30
2023-04-28T14:33:06.959Z,2.50
2023-04-28T14:35:34.664Z,2.70
2023-04-28T14:38:01.425Z,2.90
2023-04-28T14:40:28.165Z,2.80
2023-04-28T14:42:55.000Z,2.60
2023-04-28T14:45:22.147Z,2.80
2023-04-28T14:47:49.801Z,3.40
2023-04-28T14:50:16.878Z,2.30
2023-04-28T14:52:44.204Z,2.80
2023-04-28T14:55:10.992Z,2.60
2023-04-28T14:57:38.379Z,2.50
2023-04-28T15:00:07.962Z,3.10
2023-04-28T15:02:34.995Z,3.00
2023-04-28T15:05:02.297Z,3.50
2023-04-28T15:07:31.735Z,3.00
2023-04-28T15:09:59.743Z,3.30
2023-04-28T15:12:26.980Z,2.80
2023-04-28T15:14:54.075Z,2.90
2023-04-28T15:17:26.076Z,2.90
2023-04-28T15:19:52.985Z,3.20
2023-04-28T15:22:19.733Z,3.00
2023-04-28T15:24:46.728Z,3.10
2023-04-28T15:27:13.936Z,3.70
2023-04-28T15:29:40.914Z,3.00
2023-04-28T15:32:07.923Z,3.10
2023-04-28T15:34:35.292Z,2.90
2023-04-28T15:37:02.430Z,3.20
2023-04-28T15:39:29.705Z,3.50
2023-04-28T15:41:56.446Z,3.20
2023-04-28T15:44:23.207Z,3.00
2023-04-28T15:46:52.536Z,3.10
2023-04-28T15:49:19.518Z,3.10
2023-04-28T15:51:46.886Z,3.10
2023-04-28T15:54:13.661Z,3.00
2023-04-28T15:56:40.616Z,3.80
2023-04-28T15:59:07.721Z,2.70
2023-04-28T16:01:34.558Z,2.70
2023-04-28T16:04:01.769Z,2.70
2023-04-28T16:06:30.310Z,3.30
2023-04-28T16:08:57.195Z,3.30
2023-04-28T16:11:24.457Z,3.10
2023-04-28T16:13:51.445Z,3.10
2023-04-28T16:16:18.346Z,2.80
2023-04-28T16:18:45.937Z,3.30
2023-04-28T16:21:16.449Z,3.40
2023-04-28T16:23:43.365Z,3.40
2023-04-28T16:26:10.145Z,3.20
2023-04-28T16:28:36.937Z,3.00
2023-04-28T16:31:03.781Z,3.10
2023-04-28T16:33:31.060Z,3.40
2023-04-28T16:35:58.028Z,3.50
2023-04-28T16:38:24.769Z,3.30
2023-04-28T16:40:52.235Z,3.30
2023-04-28T16:43:19.119Z,3.70
2023-04-28T16:45:45.899Z,3.10
2023-04-28T16:48:15.229Z,3.10
2023-04-28T16:50:42.242Z,2.90
2023-04-28T16:53:09.018Z,3.20
2023-04-28T16:55:38.968Z,3.20
2023-04-28T16:58:06.429Z,3.80
2023-04-28T17:00:33.451Z,3.30
2023-04-28T17:03:00.748Z,5.00
2023-04-28T17:05:29.364Z,8.20
2023-04-28T17:07:57.888Z,12.40
2023-04-28T17:10:26.100Z,9.80
2023-04-28T17:12:53.024Z,12.50
2023-04-28T17:15:19.838Z,14.10
2023-04-28T17:17:49.944Z,9.10
2023-04-28T17:20:20.858Z,5.90
2023-04-28T17:22:48.734Z,4.80
2023-04-28T17:25:16.078Z,4.70
2023-04-28T17:27:43.327Z,5.50
2023-04-28T17:30:11.510Z,5.50
2023-04-28T17:32:38.386Z,4.90
2023-04-28T17:35:06.151Z,8.10
2023-04-28T17:37:33.710Z,9.80
2023-04-28T17:40:01.624Z,8.50
2023-04-28T17:42:34.606Z,6.10
2023-04-28T17:45:01.618Z,5.70
2023-04-28T17:47:28.423Z,6.00
2023-04-28T17:49:55.500Z,5.10
2023-04-28T17:52:22.648Z,4.90
2023-04-28T17:54:49.683Z,4.70
2023-04-28T17:57:17.888Z,4.50
2023-04-28T17:59:46.574Z,4.60
2023-04-28T18:02:13.622Z,4.30
2023-04-28T18:04:40.651Z,4.70
2023-04-28T18:07:07.987Z,7.00
2023-04-28T18:09:34.809Z,7.80
2023-04-28T18:12:05.377Z,9.30
2023-04-28T18:14:32.217Z,10.70
2023-04-28T18:16:59.059Z,12.30
2023-04-28T18:19:27.623Z,32.90
2023-04-28T18:21:58.152Z,27.20
2023-04-28T18:24:24.974Z,26.10
2023-04-28T18:26:51.992Z,24.30
2023-04-28T18:29:20.394Z,18.60
2023-04-28T18:31:47.283Z,15.80
2023-04-28T18:34:14.238Z,12.80
2023-04-28T18:36:41.563Z,12.90
2023-04-28T18:39:09.252Z,10.90
2023-04-28T18:41:36.496Z,9.80
2023-04-28T18:44:03.452Z,10.10
2023-04-28T18:46:30.916Z,10.10
2023-04-28T18:48:58.065Z,9.80
2023-04-28T18:51:24.882Z,9.30
2023-04-28T18:53:51.589Z,8.50
2023-04-28T18:56:18.559Z,8.90
2023-04-28T18:58:47.304Z,8.70
2023-04-28T19:01:17.860Z,7.50
2023-04-28T19:03:45.006Z,8.10
2023-04-28T19:06:12.169Z,7.90
2023-04-28T19:08:39.388Z,8.00
2023-04-28T19:11:08.274Z,7.70
2023-04-28T19:13:38.219Z,8.10
2023-04-28T19:16:05.370Z,9.50
2023-04-28T19:18:32.474Z,9.00
2023-04-28T19:21:03.012Z,9.90
2023-04-28T19:23:30.606Z,10.10
2023-04-28T19:25:58.433Z,9.80
2023-04-28T19:28:26.352Z,11.70
2023-04-28T19:30:54.141Z,11.20
2023-04-28T19:33:24.885Z,11.50
2023-04-28T19:35:56.052Z,11.60
2023-04-28T19:38:23.570Z,11.50
2023-04-28T19:40:53.827Z,13.90
2023-04-28T19:43:20.821Z,12.90
2023-04-28T19:45:47.752Z,12.10
2023-04-28T19:48:14.861Z,14.00
2023-04-28T19:50:42.339Z,12.90
2023-04-28T19:53:09.475Z,12.50
2023-04-28T19:55:36.837Z,12.00
2023-04-28T19:58:04.234Z,14.00
2023-04-28T20:00:32.550Z,11.80
2023-04-28T20:03:00.312Z,11.30
2023-04-28T20:05:27.536Z,12.50
2023-04-28T20:07:56.122Z,12.20
2023-04-28T20:10:23.887Z,13.10
2023-04-28T20:12:50.956Z,11.90
2023-04-28T20:15:18.541Z,11.20
2023-04-28T20:17:46.236Z,12.00
2023-04-28T20:20:13.504Z,12.80
2023-04-28T20:22:43.328Z,11.80
2023-04-28T20:25:10.811Z,11.90
2023-04-28T20:27:37.863Z,11.70
2023-04-28T20:30:05.642Z,12.10
2023-04-28T20:32:32.686Z,11.70
2023-04-28T20:34:59.758Z,12.40
2023-04-28T20:37:26.677Z,11.30
2023-04-28T20:39:53.701Z,11.30
2023-04-28T20:42:20.561Z,14.30
2023-04-28T20:44:47.304Z,16.00
2023-04-28T20:47:14.300Z,14.90
2023-04-28T20:49:42.326Z,15.40
2023-04-28T20:52:09.342Z,15.20
2023-04-28T20:54:36.545Z,15.00
2023-04-28T20:57:05.290Z,14.00
2023-04-28T20:59:32.801Z,14.30
2023-04-28T21:02:00.489Z,13.50
2023-04-28T21:04:28.445Z,13.40
2023-04-28T21:06:55.652Z,13.50
2023-04-28T21:09:25.293Z,13.40
2023-04-28T21:11:52.689Z,15.20
2023-04-28T21:14:20.328Z,14.70
2023-04-28T21:16:47.357Z,15.00
2023-04-28T21:19:14.236Z,14.70
2023-04-28T21:21:41.128Z,14.70
2023-04-28T21:24:09.290Z,14.90
2023-04-28T21:26:37.034Z,17.80
2023-04-28T21:29:03.893Z,18.10
2023-04-28T21:31:31.348Z,17.20
2023-04-28T21:33:58.216Z,17.70
2023-04-28T21:36:25.064Z,16.20
2023-04-28T21:38:51.958Z,16.70
2023-04-28T21:41:18.740Z,16.30
2023-04-28T21:43:46.044Z,16.80
2023-04-28T21:46:13.244Z,16.40
2023-04-28T21:48:40.130Z,15.70
2023-04-28T21:51:07.065Z,16.20
2023-04-28T21:53:34.535Z,17.50
2023-04-28T21:56:02.113Z,17.50
2023-04-28T21:58:28.865Z,14.70
2023-04-28T22:00:55.624Z,17.40
2023-04-28T22:03:22.951Z,17.90
2023-04-28T22:05:49.916Z,16.80
2023-04-28T22:08:17.225Z,16.00
2023-04-28T22:10:45.625Z,17.00
2023-04-28T22:13:13.122Z,16.40
2023-04-28T22:15:40.168Z,17.60
2023-04-28T22:18:08.301Z,17.10
2023-04-28T22:20:35.972Z,16.50
2023-04-28T22:23:02.793Z,17.10
2023-04-28T22:25:29.636Z,17.20
2023-04-28T22:27:56.500Z,18.20
2023-04-28T22:30:25.813Z,16.70
2023-04-28T22:32:53.515Z,15.70
2023-04-28T22:35:20.443Z,17.00
2023-04-28T22:37:47.294Z,16.80
2023-04-28T22:40:14.137Z,16.00
2023-04-28T22:42:41.526Z,18.20
2023-04-28T22:45:10.274Z,18.20
2023-04-28T22:47:38.508Z,18.00
2023-04-28T22:50:06.760Z,17.70
2023-04-28T22:52:34.197Z,16.60
2023-04-28T22:55:01.193Z,16.80
2023-04-28T22:57:28.246Z,17.30
2023-04-28T22:59:55.483Z,18.30
2023-04-28T23:02:23.243Z,18.20
2023-04-28T23:04:50.500Z,18.10
2023-04-28T23:07:17.391Z,17.80
2023-04-28T23:09:44.142Z,17.60
2023-04-28T23:12:11.013Z,17.50
2023-04-28T23:14:38.305Z,17.80
2023-04-28T23:17:05.333Z,17.80
2023-04-28T23:19:32.250Z,17.70
2023-04-28T23:21:59.037Z,18.30
2023-04-28T23:24:27.259Z,16.90
2023-04-28T23:26:54.334Z,18.30
2023-04-28T23:29:21.141Z,16.60
2023-04-28T23:31:52.757Z,16.70
2023-04-28T23:34:19.926Z,16.70
2023-04-28T23:36:46.702Z,17.40
2023-04-28T23:39:13.672Z,17.80
2023-04-28T23:41:41.211Z,17.50
2023-04-28T23:44:08.390Z,18.00
2023-04-28T23:46:35.211Z,14.70
2023-04-28T23:49:02.293Z,16.00
2023-04-28T23:51:30.268Z,16.70
2023-04-28T23:53:57.086Z,15.70
2023-04-28T23:56:23.794Z,16.30
2023-04-28T23:58:51.190Z,16.40
